sensor_id;sensor_type;location;lat;lon;timestamp;P1;durP1;ratioP1;P2;durP2;ratioP2
52858;SDS011;38721;53.098;6.596;2023-10-13T00:01:55;56.78;;;30.25;;
52858;SDS011;38721;53.098;6.596;2023-10-13T00:04:30;70.72;;;32.45;;
52858;SDS011;38721;53.098;6.596;2023-10-13T00:07:00;72.13;;;32.28;;
52858;SDS011;38721;53.098;6.596;2023-10-13T00:09:27;68.03;;;32.47;;
52858;SDS011;38721;53.098;6.596;2023-10-13T00:12:07;62.47;;;31.38;;
52858;SDS011;38721;53.098;6.596;2023-10-13T00:14:39;66.38;;;30.77;;
52858;SDS011;38721;53.098;6.596;2023-10-13T00:17:06;67.75;;;32.13;;
52858;SDS011;38721;53.098;6.596;2023-10-13T00:19:37;61.50;;;30.65;;
52858;SDS011;38721;53.098;6.596;2023-10-13T00:22:10;58.75;;;28.85;;
52858;SDS011;38721;53.098;6.596;2023-10-13T00:24:44;74.35;;;31.60;;
52858;SDS011;38721;53.098;6.596;2023-10-13T00:29:53;55.28;;;28.67;;
52858;SDS011;38721;53.098;6.596;2023-10-13T00:32:48;65.10;;;30.80;;
52858;SDS011;38721;53.098;6.596;2023-10-13T00:35:19;58.10;;;29.42;;
52858;SDS011;38721;53.098;6.596;2023-10-13T00:37:53;56.28;;;29.70;;
52858;SDS011;38721;53.098;6.596;2023-10-13T00:40:24;56.53;;;29.92;;
52858;SDS011;38721;53.098;6.596;2023-10-13T00:42:59;58.03;;;29.23;;
52858;SDS011;38721;53.098;6.596;2023-10-13T00:45:50;62.40;;;29.45;;
52858;SDS011;38721;53.098;6.596;2023-10-13T00:48:28;50.83;;;26.90;;
52858;SDS011;38721;53.098;6.596;2023-10-13T00:50:59;79.85;;;30.98;;
52858;SDS011;38721;53.098;6.596;2023-10-13T00:53:32;69.90;;;31.42;;
52858;SDS011;38721;53.098;6.596;2023-10-13T00:56:09;53.42;;;27.77;;
52858;SDS011;38721;53.098;6.596;2023-10-13T00:58:46;50.15;;;27.33;;
52858;SDS011;38721;53.098;6.596;2023-10-13T01:01:12;56.75;;;26.90;;
52858;SDS011;38721;53.098;6.596;2023-10-13T01:03:44;51.17;;;27.17;;
52858;SDS011;38721;53.098;6.596;2023-10-13T01:06:13;54.65;;;27.20;;
52858;SDS011;38721;53.098;6.596;2023-10-13T01:08:42;56.47;;;26.38;;
52858;SDS011;38721;53.098;6.596;2023-10-13T01:11:10;42.83;;;24.92;;
52858;SDS011;38721;53.098;6.596;2023-10-13T01:13:35;51.92;;;26.48;;
52858;SDS011;38721;53.098;6.596;2023-10-13T01:16:01;47.67;;;25.42;;
52858;SDS011;38721;53.098;6.596;2023-10-13T01:18:32;53.85;;;25.58;;
52858;SDS011;38721;53.098;6.596;2023-10-13T01:21:05;48.53;;;25.08;;
52858;SDS011;38721;53.098;6.596;2023-10-13T01:23:32;49.15;;;25.13;;
52858;SDS011;38721;53.098;6.596;2023-10-13T01:26:03;58.13;;;24.73;;
52858;SDS011;38721;53.098;6.596;2023-10-13T01:28:30;44.70;;;23.25;;
52858;SDS011;38721;53.098;6.596;2023-10-13T01:31:10;44.90;;;22.38;;
52858;SDS011;38721;53.098;6.596;2023-10-13T01:33:38;43.78;;;23.63;;
52858;SDS011;38721;53.098;6.596;2023-10-13T01:36:04;40.65;;;23.48;;
52858;SDS011;38721;53.098;6.596;2023-10-13T01:38:35;43.60;;;23.23;;
52858;SDS011;38721;53.098;6.596;2023-10-13T01:41:05;41.40;;;22.05;;
52858;SDS011;38721;53.098;6.596;2023-10-13T01:43:33;36.35;;;22.10;;
52858;SDS011;38721;53.098;6.596;2023-10-13T01:45:59;34.97;;;20.67;;
52858;SDS011;38721;53.098;6.596;2023-10-13T01:48:27;41.20;;;21.05;;
52858;SDS011;38721;53.098;6.596;2023-10-13T01:50:55;35.88;;;21.08;;
52858;SDS011;38721;53.098;6.596;2023-10-13T01:53:25;33.10;;;20.25;;
52858;SDS011;38721;53.098;6.596;2023-10-13T01:55:53;37.10;;;19.88;;
52858;SDS011;38721;53.098;6.596;2023-10-13T01:58:22;37.40;;;19.85;;
52858;SDS011;38721;53.098;6.596;2023-10-13T02:00:51;34.42;;;19.42;;
52858;SDS011;38721;53.098;6.596;2023-10-13T02:03:17;34.35;;;19.60;;
52858;SDS011;38721;53.098;6.596;2023-10-13T02:05:46;39.67;;;20.67;;
52858;SDS011;38721;53.098;6.596;2023-10-13T02:08:17;33.95;;;19.55;;
52858;SDS011;38721;53.098;6.596;2023-10-13T02:10:50;28.52;;;18.00;;
52858;SDS011;38721;53.098;6.596;2023-10-13T02:13:17;33.25;;;18.83;;
52858;SDS011;38721;53.098;6.596;2023-10-13T02:15:47;31.73;;;17.13;;
52858;SDS011;38721;53.098;6.596;2023-10-13T02:18:16;28.20;;;17.30;;
52858;SDS011;38721;53.098;6.596;2023-10-13T02:21:07;30.38;;;17.45;;
52858;SDS011;38721;53.098;6.596;2023-10-13T02:23:39;31.70;;;18.13;;
52858;SDS011;38721;53.098;6.596;2023-10-13T02:26:09;27.58;;;16.25;;
52858;SDS011;38721;53.098;6.596;2023-10-13T02:28:52;26.13;;;16.05;;
52858;SDS011;38721;53.098;6.596;2023-10-13T02:31:22;34.22;;;17.13;;
52858;SDS011;38721;53.098;6.596;2023-10-13T02:33:49;30.58;;;16.48;;
52858;SDS011;38721;53.098;6.596;2023-10-13T02:36:15;25.67;;;15.73;;
52858;SDS011;38721;53.098;6.596;2023-10-13T02:38:51;29.50;;;17.27;;
52858;SDS011;38721;53.098;6.596;2023-10-13T02:41:18;35.75;;;18.30;;
52858;SDS011;38721;53.098;6.596;2023-10-13T02:43:51;46.78;;;21.13;;
52858;SDS011;38721;53.098;6.596;2023-10-13T02:46:18;42.30;;;21.10;;
52858;SDS011;38721;53.098;6.596;2023-10-13T02:48:47;45.30;;;22.17;;
52858;SDS011;38721;53.098;6.596;2023-10-13T02:51:18;39.30;;;22.05;;
52858;SDS011;38721;53.098;6.596;2023-10-13T02:53:56;44.00;;;22.30;;
52858;SDS011;38721;53.098;6.596;2023-10-13T02:56:28;50.15;;;23.98;;
52858;SDS011;38721;53.098;6.596;2023-10-13T02:58:54;46.45;;;24.77;;
52858;SDS011;38721;53.098;6.596;2023-10-13T03:01:30;46.83;;;23.80;;
52858;SDS011;38721;53.098;6.596;2023-10-13T03:04:03;47.47;;;24.23;;
52858;SDS011;38721;53.098;6.596;2023-10-13T03:06:33;42.00;;;23.85;;
52858;SDS011;38721;53.098;6.596;2023-10-13T03:09:04;42.97;;;23.77;;
52858;SDS011;38721;53.098;6.596;2023-10-13T03:11:44;41.33;;;24.55;;
52858;SDS011;38721;53.098;6.596;2023-10-13T03:14:14;42.10;;;23.73;;
52858;SDS011;38721;53.098;6.596;2023-10-13T03:17:00;39.97;;;23.33;;
52858;SDS011;38721;53.098;6.596;2023-10-13T03:19:29;48.05;;;23.58;;
52858;SDS011;38721;53.098;6.596;2023-10-13T03:21:59;32.22;;;21.73;;
52858;SDS011;38721;53.098;6.596;2023-10-13T03:24:38;36.13;;;22.17;;
52858;SDS011;38721;53.098;6.596;2023-10-13T03:27:11;30.23;;;18.50;;
52858;SDS011;38721;53.098;6.596;2023-10-13T03:29:41;29.70;;;18.20;;
52858;SDS011;38721;53.098;6.596;2023-10-13T03:32:12;29.23;;;17.58;;
52858;SDS011;38721;53.098;6.596;2023-10-13T03:34:41;22.73;;;14.77;;
52858;SDS011;38721;53.098;6.596;2023-10-13T03:37:26;25.73;;;14.93;;
52858;SDS011;38721;53.098;6.596;2023-10-13T03:40:03;24.13;;;14.18;;
52858;SDS011;38721;53.098;6.596;2023-10-13T03:42:53;22.58;;;14.60;;
52858;SDS011;38721;53.098;6.596;2023-10-13T03:45:45;21.88;;;14.60;;
52858;SDS011;38721;53.098;6.596;2023-10-13T03:48:17;25.27;;;15.70;;
52858;SDS011;38721;53.098;6.596;2023-10-13T03:50:49;29.60;;;15.80;;
52858;SDS011;38721;53.098;6.596;2023-10-13T03:53:29;29.92;;;17.23;;
52858;SDS011;38721;53.098;6.596;2023-10-13T03:56:02;26.60;;;16.27;;
52858;SDS011;38721;53.098;6.596;2023-10-13T03:58:51;29.02;;;17.15;;
52858;SDS011;38721;53.098;6.596;2023-10-13T04:01:28;29.33;;;17.98;;
52858;SDS011;38721;53.098;6.596;2023-10-13T04:03:59;28.58;;;17.60;;
52858;SDS011;38721;53.098;6.596;2023-10-13T04:06:34;30.83;;;17.20;;
52858;SDS011;38721;53.098;6.596;2023-10-13T04:09:19;26.75;;;17.17;;
52858;SDS011;38721;53.098;6.596;2023-10-13T04:11:55;27.67;;;16.63;;
52858;SDS011;38721;53.098;6.596;2023-10-13T04:14:25;29.52;;;17.05;;
52858;SDS011;38721;53.098;6.596;2023-10-13T04:17:10;27.33;;;16.33;;
52858;SDS011;38721;53.098;6.596;2023-10-13T04:19:42;27.65;;;15.98;;
52858;SDS011;38721;53.098;6.596;2023-10-13T04:22:27;29.02;;;16.40;;
52858;SDS011;38721;53.098;6.596;2023-10-13T04:25:14;26.95;;;15.90;;
52858;SDS011;38721;53.098;6.596;2023-10-13T04:28:07;28.75;;;15.88;;
52858;SDS011;38721;53.098;6.596;2023-10-13T04:30:37;24.20;;;15.10;;
52858;SDS011;38721;53.098;6.596;2023-10-13T04:33:13;25.45;;;15.70;;
52858;SDS011;38721;53.098;6.596;2023-10-13T04:36:04;25.00;;;15.15;;
52858;SDS011;38721;53.098;6.596;2023-10-13T04:38:50;25.88;;;15.20;;
52858;SDS011;38721;53.098;6.596;2023-10-13T04:41:27;25.95;;;15.07;;
52858;SDS011;38721;53.098;6.596;2023-10-13T04:44:22;28.77;;;16.08;;
52858;SDS011;38721;53.098;6.596;2023-10-13T04:47:09;28.17;;;15.88;;
52858;SDS011;38721;53.098;6.596;2023-10-13T04:49:39;25.88;;;16.13;;
52858;SDS011;38721;53.098;6.596;2023-10-13T04:52:11;27.73;;;16.25;;
52858;SDS011;38721;53.098;6.596;2023-10-13T04:54:41;28.17;;;16.08;;
52858;SDS011;38721;53.098;6.596;2023-10-13T04:57:14;25.70;;;15.25;;
52858;SDS011;38721;53.098;6.596;2023-10-13T05:00:00;26.70;;;15.80;;
52858;SDS011;38721;53.098;6.596;2023-10-13T05:02:40;25.52;;;15.13;;
52858;SDS011;38721;53.098;6.596;2023-10-13T05:05:18;25.10;;;15.50;;
52858;SDS011;38721;53.098;6.596;2023-10-13T05:07:57;25.30;;;15.65;;
52858;SDS011;38721;53.098;6.596;2023-10-13T05:10:41;21.67;;;13.90;;
52858;SDS011;38721;53.098;6.596;2023-10-13T05:13:25;25.48;;;15.45;;
52858;SDS011;38721;53.098;6.596;2023-10-13T05:16:09;26.35;;;14.18;;
52858;SDS011;38721;53.098;6.596;2023-10-13T05:18:54;23.20;;;14.13;;
52858;SDS011;38721;53.098;6.596;2023-10-13T05:21:38;19.95;;;12.88;;
52858;SDS011;38721;53.098;6.596;2023-10-13T05:24:22;18.65;;;11.90;;
52858;SDS011;38721;53.098;6.596;2023-10-13T05:27:06;19.08;;;12.20;;
52858;SDS011;38721;53.098;6.596;2023-10-13T05:29:50;19.00;;;12.45;;
52858;SDS011;38721;53.098;6.596;2023-10-13T05:32:34;17.50;;;11.63;;
52858;SDS011;38721;53.098;6.596;2023-10-13T05:35:19;18.15;;;11.60;;
52858;SDS011;38721;53.098;6.596;2023-10-13T05:38:04;17.60;;;9.95;;
52858;SDS011;38721;53.098;6.596;2023-10-13T05:40:52;15.52;;;9.68;;
52858;SDS011;38721;53.098;6.596;2023-10-13T05:43:41;18.33;;;9.95;;
52858;SDS011;38721;53.098;6.596;2023-10-13T05:46:28;14.88;;;9.70;;
52858;SDS011;38721;53.098;6.596;2023-10-13T05:49:14;16.67;;;9.60;;
52858;SDS011;38721;53.098;6.596;2023-10-13T05:51:43;14.00;;;8.75;;
52858;SDS011;38721;53.098;6.596;2023-10-13T05:54:23;15.18;;;8.60;;
52858;SDS011;38721;53.098;6.596;2023-10-13T05:57:07;12.85;;;8.52;;
52858;SDS011;38721;53.098;6.596;2023-10-13T06:00:05;13.60;;;8.15;;
52858;SDS011;38721;53.098;6.596;2023-10-13T06:02:49;15.45;;;9.23;;
52858;SDS011;38721;53.098;6.596;2023-10-13T06:05:33;11.55;;;7.70;;
52858;SDS011;38721;53.098;6.596;2023-10-13T06:08:21;10.20;;;7.13;;
52858;SDS011;38721;53.098;6.596;2023-10-13T06:11:05;10.43;;;6.95;;
52858;SDS011;38721;53.098;6.596;2023-10-13T06:13:49;9.35;;;6.72;;
52858;SDS011;38721;53.098;6.596;2023-10-13T06:16:33;9.68;;;5.65;;
52858;SDS011;38721;53.098;6.596;2023-10-13T06:19:17;7.78;;;5.65;;
52858;SDS011;38721;53.098;6.596;2023-10-13T06:22:02;7.00;;;4.65;;
52858;SDS011;38721;53.098;6.596;2023-10-13T06:24:46;8.48;;;5.47;;
52858;SDS011;38721;53.098;6.596;2023-10-13T06:27:30;8.00;;;5.25;;
52858;SDS011;38721;53.098;6.596;2023-10-13T06:30:14;9.13;;;4.40;;
52858;SDS011;38721;53.098;6.596;2023-10-13T06:32:42;7.22;;;4.70;;
52858;SDS011;38721;53.098;6.596;2023-10-13T06:35:08;6.70;;;4.20;;
52858;SDS011;38721;53.098;6.596;2023-10-13T06:37:34;5.47;;;4.07;;
52858;SDS011;38721;53.098;6.596;2023-10-13T06:40:10;6.60;;;4.53;;
52858;SDS011;38721;53.098;6.596;2023-10-13T06:42:56;6.68;;;4.22;;
52858;SDS011;38721;53.098;6.596;2023-10-13T06:45:37;5.60;;;4.10;;
52858;SDS011;38721;53.098;6.596;2023-10-13T06:48:07;5.65;;;4.13;;
52858;SDS011;38721;53.098;6.596;2023-10-13T06:50:37;8.25;;;4.50;;
52858;SDS011;38721;53.098;6.596;2023-10-13T06:53:06;6.03;;;4.13;;
52858;SDS011;38721;53.098;6.596;2023-10-13T06:55:36;6.80;;;3.90;;
52858;SDS011;38721;53.098;6.596;2023-10-13T06:58:05;6.75;;;4.10;;
52858;SDS011;38721;53.098;6.596;2023-10-13T07:00:31;5.07;;;3.65;;
52858;SDS011;38721;53.098;6.596;2023-10-13T07:03:03;6.07;;;4.10;;
52858;SDS011;38721;53.098;6.596;2023-10-13T07:05:35;5.15;;;3.25;;
52858;SDS011;38721;53.098;6.596;2023-10-13T07:08:05;4.88;;;3.25;;
52858;SDS011;38721;53.098;6.596;2023-10-13T07:10:31;5.68;;;3.15;;
52858;SDS011;38721;53.098;6.596;2023-10-13T07:13:10;8.88;;;3.17;;
52858;SDS011;38721;53.098;6.596;2023-10-13T07:15:38;5.63;;;3.03;;
52858;SDS011;38721;53.098;6.596;2023-10-13T07:18:10;6.68;;;2.92;;
52858;SDS011;38721;53.098;6.596;2023-10-13T07:20:38;8.95;;;3.35;;
52858;SDS011;38721;53.098;6.596;2023-10-13T07:23:09;5.80;;;3.53;;
52858;SDS011;38721;53.098;6.596;2023-10-13T07:25:42;6.60;;;3.22;;
52858;SDS011;38721;53.098;6.596;2023-10-13T07:28:19;7.75;;;4.15;;
52858;SDS011;38721;53.098;6.596;2023-10-13T07:30:45;6.88;;;4.22;;
52858;SDS011;38721;53.098;6.596;2023-10-13T07:33:37;8.57;;;4.18;;
52858;SDS011;38721;53.098;6.596;2023-10-13T07:36:05;7.35;;;3.53;;
52858;SDS011;38721;53.098;6.596;2023-10-13T07:38:45;7.00;;;3.38;;
52858;SDS011;38721;53.098;6.596;2023-10-13T07:41:24;6.35;;;3.50;;
52858;SDS011;38721;53.098;6.596;2023-10-13T07:43:55;5.38;;;3.50;;
52858;SDS011;38721;53.098;6.596;2023-10-13T07:46:22;7.28;;;4.05;;
52858;SDS011;38721;53.098;6.596;2023-10-13T07:48:56;8.57;;;3.92;;
52858;SDS011;38721;53.098;6.596;2023-10-13T07:51:33;9.07;;;4.18;;
52858;SDS011;38721;53.098;6.596;2023-10-13T07:54:09;12.57;;;4.72;;
52858;SDS011;38721;53.098;6.596;2023-10-13T07:56:47;8.73;;;4.20;;
52858;SDS011;38721;53.098;6.596;2023-10-13T07:59:13;10.43;;;4.18;;
52858;SDS011;38721;53.098;6.596;2023-10-13T08:01:42;10.48;;;4.10;;
52858;SDS011;38721;53.098;6.596;2023-10-13T08:04:11;9.57;;;4.10;;
52858;SDS011;38721;53.098;6.596;2023-10-13T08:06:37;8.57;;;4.70;;
52858;SDS011;38721;53.098;6.596;2023-10-13T08:09:06;10.13;;;4.30;;
52858;SDS011;38721;53.098;6.596;2023-10-13T08:11:55;11.52;;;4.65;;
52858;SDS011;38721;53.098;6.596;2023-10-13T08:14:24;12.30;;;4.68;;
52858;SDS011;38721;53.098;6.596;2023-10-13T08:16:54;10.77;;;4.75;;
52858;SDS011;38721;53.098;6.596;2023-10-13T08:19:28;16.00;;;5.00;;
52858;SDS011;38721;53.098;6.596;2023-10-13T08:22:04;10.65;;;4.53;;
52858;SDS011;38721;53.098;6.596;2023-10-13T08:24:43;16.55;;;5.10;;
52858;SDS011;38721;53.098;6.596;2023-10-13T08:27:13;11.18;;;5.50;;
52858;SDS011;38721;53.098;6.596;2023-10-13T08:29:39;14.50;;;6.22;;
52858;SDS011;38721;53.098;6.596;2023-10-13T08:32:24;16.63;;;5.20;;
52858;SDS011;38721;53.098;6.596;2023-10-13T08:34:54;12.48;;;4.82;;
52858;SDS011;38721;53.098;6.596;2023-10-13T08:37:20;14.45;;;5.40;;
52858;SDS011;38721;53.098;6.596;2023-10-13T08:39:53;16.50;;;5.45;;
52858;SDS011;38721;53.098;6.596;2023-10-13T08:42:25;14.75;;;5.70;;
52858;SDS011;38721;53.098;6.596;2023-10-13T08:45:12;14.93;;;5.85;;
52858;SDS011;38721;53.098;6.596;2023-10-13T08:47:54;15.63;;;5.75;;
52858;SDS011;38721;53.098;6.596;2023-10-13T08:50:47;12.05;;;5.28;;
52858;SDS011;38721;53.098;6.596;2023-10-13T08:53:27;12.80;;;5.55;;
52858;SDS011;38721;53.098;6.596;2023-10-13T08:56:03;13.38;;;5.53;;
52858;SDS011;38721;53.098;6.596;2023-10-13T08:58:36;13.80;;;5.45;;
52858;SDS011;38721;53.098;6.596;2023-10-13T09:04:25;11.82;;;4.93;;
52858;SDS011;38721;53.098;6.596;2023-10-13T09:07:03;9.63;;;5.38;;
52858;SDS011;38721;53.098;6.596;2023-10-13T09:09:33;10.75;;;4.80;;
52858;SDS011;38721;53.098;6.596;2023-10-13T09:12:02;12.18;;;5.90;;
52858;SDS011;38721;53.098;6.596;2023-10-13T09:14:38;11.25;;;5.15;;
52858;SDS011;38721;53.098;6.596;2023-10-13T09:17:12;10.43;;;5.30;;
52858;SDS011;38721;53.098;6.596;2023-10-13T09:19:59;13.23;;;6.15;;
52858;SDS011;38721;53.098;6.596;2023-10-13T09:22:28;9.25;;;5.53;;
52858;SDS011;38721;53.098;6.596;2023-10-13T09:25:01;12.32;;;5.75;;
52858;SDS011;38721;53.098;6.596;2023-10-13T09:27:29;11.50;;;5.30;;
52858;SDS011;38721;53.098;6.596;2023-10-13T09:30:01;14.05;;;5.95;;
52858;SDS011;38721;53.098;6.596;2023-10-13T09:32:34;12.15;;;6.38;;
52858;SDS011;38721;53.098;6.596;2023-10-13T09:35:19;9.98;;;5.28;;
52858;SDS011;38721;53.098;6.596;2023-10-13T09:37:49;12.52;;;5.63;;
52858;SDS011;38721;53.098;6.596;2023-10-13T09:40:16;12.93;;;6.47;;
52858;SDS011;38721;53.098;6.596;2023-10-13T09:43:12;10.77;;;5.25;;
52858;SDS011;38721;53.098;6.596;2023-10-13T09:45:43;10.20;;;5.03;;
52858;SDS011;38721;53.098;6.596;2023-10-13T09:48:33;12.30;;;5.18;;
52858;SDS011;38721;53.098;6.596;2023-10-13T09:51:01;11.60;;;4.80;;
52858;SDS011;38721;53.098;6.596;2023-10-13T09:53:33;13.60;;;5.25;;
52858;SDS011;38721;53.098;6.596;2023-10-13T09:56:07;15.80;;;4.35;;
52858;SDS011;38721;53.098;6.596;2023-10-13T09:59:31;10.35;;;5.75;;
52858;SDS011;38721;53.098;6.596;2023-10-13T10:01:42;8.07;;;4.30;;
52858;SDS011;38721;53.098;6.596;2023-10-13T10:04:16;10.13;;;4.32;;
52858;SDS011;38721;53.098;6.596;2023-10-13T10:09:32;9.02;;;4.05;;
52858;SDS011;38721;53.098;6.596;2023-10-13T10:17:21;15.02;;;5.05;;
52858;SDS011;38721;53.098;6.596;2023-10-13T10:19:51;11.32;;;4.78;;
52858;SDS011;38721;53.098;6.596;2023-10-13T10:25:01;12.43;;;4.93;;
52858;SDS011;38721;53.098;6.596;2023-10-13T10:27:29;15.57;;;4.85;;
52858;SDS011;38721;53.098;6.596;2023-10-13T10:29:56;14.32;;;5.60;;
52858;SDS011;38721;53.098;6.596;2023-10-13T10:32:37;9.85;;;5.00;;
52858;SDS011;38721;53.098;6.596;2023-10-13T10:35:10;16.50;;;4.82;;
52858;SDS011;38721;53.098;6.596;2023-10-13T10:37:46;12.32;;;4.95;;
52858;SDS011;38721;53.098;6.596;2023-10-13T10:40:21;9.63;;;4.80;;
52858;SDS011;38721;53.098;6.596;2023-10-13T10:43:05;11.85;;;4.80;;
52858;SDS011;38721;53.098;6.596;2023-10-13T10:45:35;14.13;;;5.13;;
52858;SDS011;38721;53.098;6.596;2023-10-13T10:48:11;12.63;;;4.53;;
52858;SDS011;38721;53.098;6.596;2023-10-13T10:50:54;14.95;;;4.70;;
52858;SDS011;38721;53.098;6.596;2023-10-13T10:53:21;8.70;;;4.40;;
52858;SDS011;38721;53.098;6.596;2023-10-13T10:56:05;10.95;;;4.85;;
52858;SDS011;38721;53.098;6.596;2023-10-13T10:58:44;14.30;;;4.40;;
52858;SDS011;38721;53.098;6.596;2023-10-13T11:01:14;19.25;;;4.75;;
52858;SDS011;38721;53.098;6.596;2023-10-13T11:03:53;11.88;;;4.50;;
52858;SDS011;38721;53.098;6.596;2023-10-13T11:06:24;12.02;;;4.55;;
52858;SDS011;38721;53.098;6.596;2023-10-13T11:09:06;8.93;;;4.70;;
52858;SDS011;38721;53.098;6.596;2023-10-13T11:11:44;9.73;;;4.13;;
52858;SDS011;38721;53.098;6.596;2023-10-13T11:14:21;10.27;;;5.53;;
52858;SDS011;38721;53.098;6.596;2023-10-13T11:16:51;11.77;;;4.15;;
52858;SDS011;38721;53.098;6.596;2023-10-13T11:19:33;15.50;;;4.97;;
52858;SDS011;38721;53.098;6.596;2023-10-13T11:25:07;10.32;;;4.28;;
52858;SDS011;38721;53.098;6.596;2023-10-13T11:27:40;14.32;;;5.22;;
52858;SDS011;38721;53.098;6.596;2023-10-13T11:30:16;13.45;;;4.18;;
52858;SDS011;38721;53.098;6.596;2023-10-13T11:35:24;10.32;;;4.47;;
52858;SDS011;38721;53.098;6.596;2023-10-13T11:37:50;14.30;;;4.95;;
52858;SDS011;38721;53.098;6.596;2023-10-13T11:40:31;14.38;;;4.65;;
52858;SDS011;38721;53.098;6.596;2023-10-13T11:43:09;11.93;;;4.78;;
52858;SDS011;38721;53.098;6.596;2023-10-13T11:45:47;14.73;;;4.90;;
52858;SDS011;38721;53.098;6.596;2023-10-13T11:48:40;8.90;;;4.53;;
52858;SDS011;38721;53.098;6.596;2023-10-13T11:51:07;10.75;;;4.50;;
52858;SDS011;38721;53.098;6.596;2023-10-13T11:53:36;14.90;;;5.10;;
52858;SDS011;38721;53.098;6.596;2023-10-13T11:56:04;12.65;;;5.32;;
52858;SDS011;38721;53.098;6.596;2023-10-13T11:58:39;12.20;;;4.68;;
52858;SDS011;38721;53.098;6.596;2023-10-13T12:01:06;15.88;;;5.15;;
52858;SDS011;38721;53.098;6.596;2023-10-13T12:03:38;11.68;;;5.28;;
52858;SDS011;38721;53.098;6.596;2023-10-13T12:06:26;11.82;;;5.10;;
52858;SDS011;38721;53.098;6.596;2023-10-13T12:09:02;17.13;;;5.43;;
52858;SDS011;38721;53.098;6.596;2023-10-13T12:11:56;10.50;;;4.65;;
52858;SDS011;38721;53.098;6.596;2023-10-13T12:14:25;12.50;;;4.93;;
52858;SDS011;38721;53.098;6.596;2023-10-13T12:17:17;12.73;;;4.80;;
52858;SDS011;38721;53.098;6.596;2023-10-13T12:19:54;10.55;;;4.65;;
52858;SDS011;38721;53.098;6.596;2023-10-13T12:22:20;13.23;;;4.95;;
52858;SDS011;38721;53.098;6.596;2023-10-13T12:24:54;14.70;;;5.03;;
52858;SDS011;38721;53.098;6.596;2023-10-13T12:27:20;12.93;;;5.45;;
52858;SDS011;38721;53.098;6.596;2023-10-13T12:29:49;16.45;;;5.43;;
52858;SDS011;38721;53.098;6.596;2023-10-13T12:32:17;14.65;;;5.68;;
52858;SDS011;38721;53.098;6.596;2023-10-13T12:34:49;12.23;;;5.55;;
52858;SDS011;38721;53.098;6.596;2023-10-13T12:37:27;17.40;;;6.03;;
52858;SDS011;38721;53.098;6.596;2023-10-13T12:40:09;13.10;;;6.10;;
52858;SDS011;38721;53.098;6.596;2023-10-13T12:42:56;13.48;;;5.30;;
52858;SDS011;38721;53.098;6.596;2023-10-13T12:45:40;17.00;;;5.93;;
52858;SDS011;38721;53.098;6.596;2023-10-13T12:48:29;13.45;;;5.22;;
52858;SDS011;38721;53.098;6.596;2023-10-13T12:51:14;15.45;;;5.35;;
52858;SDS011;38721;53.098;6.596;2023-10-13T12:53:50;16.25;;;6.00;;
52858;SDS011;38721;53.098;6.596;2023-10-13T12:56:17;11.73;;;5.10;;
52858;SDS011;38721;53.098;6.596;2023-10-13T12:58:53;10.18;;;5.80;;
52858;SDS011;38721;53.098;6.596;2023-10-13T13:01:26;11.02;;;5.60;;
52858;SDS011;38721;53.098;6.596;2023-10-13T13:03:59;14.30;;;6.18;;
52858;SDS011;38721;53.098;6.596;2023-10-13T13:06:28;12.40;;;5.55;;
52858;SDS011;38721;53.098;6.596;2023-10-13T13:08:58;15.77;;;5.65;;
52858;SDS011;38721;53.098;6.596;2023-10-13T13:11:25;12.52;;;6.05;;
52858;SDS011;38721;53.098;6.596;2023-10-13T13:13:53;17.58;;;6.15;;
52858;SDS011;38721;53.098;6.596;2023-10-13T13:16:19;17.02;;;6.07;;
52858;SDS011;38721;53.098;6.596;2023-10-13T13:18:52;12.20;;;6.13;;
52858;SDS011;38721;53.098;6.596;2023-10-13T13:21:20;13.70;;;5.80;;
52858;SDS011;38721;53.098;6.596;2023-10-13T13:23:50;13.00;;;6.20;;
52858;SDS011;38721;53.098;6.596;2023-10-13T13:26:16;11.95;;;5.63;;
52858;SDS011;38721;53.098;6.596;2023-10-13T13:28:42;13.20;;;5.97;;
52858;SDS011;38721;53.098;6.596;2023-10-13T13:31:09;12.63;;;5.43;;
52858;SDS011;38721;53.098;6.596;2023-10-13T13:33:37;16.70;;;6.28;;
52858;SDS011;38721;53.098;6.596;2023-10-13T13:36:08;12.88;;;6.40;;
52858;SDS011;38721;53.098;6.596;2023-10-13T13:38:41;21.15;;;6.97;;
52858;SDS011;38721;53.098;6.596;2023-10-13T13:41:13;13.38;;;5.93;;
52858;SDS011;38721;53.098;6.596;2023-10-13T13:43:43;13.10;;;5.97;;
52858;SDS011;38721;53.098;6.596;2023-10-13T13:46:17;15.00;;;6.13;;
52858;SDS011;38721;53.098;6.596;2023-10-13T13:48:57;14.27;;;6.35;;
52858;SDS011;38721;53.098;6.596;2023-10-13T13:51:24;18.15;;;6.85;;
52858;SDS011;38721;53.098;6.596;2023-10-13T13:53:57;13.52;;;6.25;;
52858;SDS011;38721;53.098;6.596;2023-10-13T13:56:23;14.70;;;6.20;;
52858;SDS011;38721;53.098;6.596;2023-10-13T13:58:56;10.00;;;6.03;;
52858;SDS011;38721;53.098;6.596;2023-10-13T14:01:22;14.20;;;6.30;;
52858;SDS011;38721;53.098;6.596;2023-10-13T14:03:50;11.80;;;6.40;;
52858;SDS011;38721;53.098;6.596;2023-10-13T14:06:21;11.68;;;5.60;;
52858;SDS011;38721;53.098;6.596;2023-10-13T14:08:58;15.98;;;6.63;;
52858;SDS011;38721;53.098;6.596;2023-10-13T14:11:30;13.00;;;6.32;;
52858;SDS011;38721;53.098;6.596;2023-10-13T14:16:38;12.23;;;6.22;;
52858;SDS011;38721;53.098;6.596;2023-10-13T14:19:09;19.98;;;6.82;;
52858;SDS011;38721;53.098;6.596;2023-10-13T14:21:36;15.63;;;6.72;;
52858;SDS011;38721;53.098;6.596;2023-10-13T14:24:02;15.30;;;5.85;;
52858;SDS011;38721;53.098;6.596;2023-10-13T14:26:37;10.35;;;6.15;;
52858;SDS011;38721;53.098;6.596;2023-10-13T14:29:03;14.80;;;6.97;;
52858;SDS011;38721;53.098;6.596;2023-10-13T14:31:32;17.65;;;7.15;;
52858;SDS011;38721;53.098;6.596;2023-10-13T14:34:01;11.23;;;6.15;;
52858;SDS011;38721;53.098;6.596;2023-10-13T14:36:27;20.25;;;6.80;;
52858;SDS011;38721;53.098;6.596;2023-10-13T14:38:59;19.15;;;7.47;;
52858;SDS011;38721;53.098;6.596;2023-10-13T14:41:25;15.75;;;6.93;;
52858;SDS011;38721;53.098;6.596;2023-10-13T14:43:51;21.50;;;6.97;;
52858;SDS011;38721;53.098;6.596;2023-10-13T14:46:17;16.13;;;6.45;;
52858;SDS011;38721;53.098;6.596;2023-10-13T14:48:53;14.63;;;5.90;;
52858;SDS011;38721;53.098;6.596;2023-10-13T14:51:19;13.05;;;6.65;;
52858;SDS011;38721;53.098;6.596;2023-10-13T14:53:46;12.60;;;6.32;;
52858;SDS011;38721;53.098;6.596;2023-10-13T14:56:13;16.83;;;6.55;;
52858;SDS011;38721;53.098;6.596;2023-10-13T14:58:43;19.83;;;6.50;;
52858;SDS011;38721;53.098;6.596;2023-10-13T15:01:13;17.85;;;7.25;;
52858;SDS011;38721;53.098;6.596;2023-10-13T15:03:47;15.13;;;6.25;;
52858;SDS011;38721;53.098;6.596;2023-10-13T15:08:46;17.42;;;6.55;;
52858;SDS011;38721;53.098;6.596;2023-10-13T15:11:12;13.88;;;6.63;;
52858;SDS011;38721;53.098;6.596;2023-10-13T15:13:41;13.25;;;6.55;;
52858;SDS011;38721;53.098;6.596;2023-10-13T15:16:14;19.55;;;6.75;;
52858;SDS011;38721;53.098;6.596;2023-10-13T15:18:42;18.95;;;7.40;;
52858;SDS011;38721;53.098;6.596;2023-10-13T15:21:32;17.17;;;8.80;;
52858;SDS011;38721;53.098;6.596;2023-10-13T15:24:00;16.48;;;6.88;;
52858;SDS011;38721;53.098;6.596;2023-10-13T15:26:38;14.90;;;5.97;;
52858;SDS011;38721;53.098;6.596;2023-10-13T15:29:07;14.80;;;5.97;;
52858;SDS011;38721;53.098;6.596;2023-10-13T15:31:34;16.35;;;5.88;;
52858;SDS011;38721;53.098;6.596;2023-10-13T15:34:00;16.40;;;5.90;;
52858;SDS011;38721;53.098;6.596;2023-10-13T15:36:38;13.43;;;6.05;;
52858;SDS011;38721;53.098;6.596;2023-10-13T15:39:06;16.08;;;6.20;;
52858;SDS011;38721;53.098;6.596;2023-10-13T15:41:33;20.95;;;6.85;;